createdAt,value
2023-03-11T00:00:33.502Z,1.40
2023-03-11T00:03:03.242Z,1.20
2023-03-11T00:05:34.925Z,1.30
2023-03-11T00:08:04.180Z,1.20
2023-03-11T00:10:34.175Z,1.83
2023-03-11T00:13:03.018Z,1.20
2023-03-11T00:15:31.925Z,1.47
2023-03-11T00:18:00.426Z,1.57
2023-03-11T00:20:30.779Z,1.60
2023-03-11T00:23:01.333Z,2.13
2023-03-11T00:25:32.615Z,1.60
2023-03-11T00:28:01.806Z,1.73
2023-03-11T00:30:30.555Z,1.63
2023-03-11T00:33:00.116Z,1.50
2023-03-11T00:35:30.829Z,1.37
2023-03-11T00:38:02.494Z,1.53
2023-03-11T00:40:32.425Z,1.70
2023-03-11T00:43:01.097Z,1.63
2023-03-11T00:45:30.226Z,2.63
2023-03-11T00:47:58.984Z,1.77
2023-03-11T00:50:29.918Z,1.53
2023-03-11T00:53:00.401Z,1.27
2023-03-11T00:55:30.437Z,1.30
2023-03-11T00:58:00.897Z,1.67
2023-03-11T01:00:30.354Z,1.33
2023-03-11T01:02:59.047Z,1.40
2023-03-11T01:05:30.995Z,1.60
2023-03-11T01:08:01.167Z,2.00
2023-03-11T01:10:30.679Z,1.53
2023-03-11T01:12:59.246Z,1.40
2023-03-11T01:15:29.661Z,1.33
2023-03-11T01:17:58.201Z,1.70
2023-03-11T01:20:26.410Z,1.63
2023-03-11T01:22:54.856Z,1.80
2023-03-11T01:25:25.854Z,1.70
2023-03-11T01:27:54.130Z,2.20
2023-03-11T01:30:23.924Z,2.10
2023-03-11T01:32:53.262Z,2.00
2023-03-11T01:35:23.892Z,1.57
2023-03-11T01:37:52.434Z,1.90
2023-03-11T01:40:24.505Z,2.00
2023-03-11T01:42:54.337Z,4.23
2023-03-11T01:45:39.478Z,2.17
2023-03-11T01:48:08.788Z,1.70
2023-03-11T01:50:40.467Z,1.77
2023-03-11T01:53:09.329Z,1.40
2023-03-11T01:55:37.942Z,1.50
2023-03-11T01:58:10.147Z,1.40
2023-03-11T02:00:39.038Z,1.63
2023-03-11T02:03:12.776Z,1.67
2023-03-11T02:05:41.969Z,1.40
2023-03-11T02:08:10.265Z,1.40
2023-03-11T02:10:41.781Z,1.83
2023-03-11T02:13:11.736Z,1.60
2023-03-11T02:15:40.701Z,1.67
2023-03-11T02:18:10.526Z,1.80
2023-03-11T02:20:46.317Z,2.10
2023-03-11T02:23:15.956Z,1.50
2023-03-11T02:25:52.023Z,1.43
2023-03-11T02:28:23.000Z,2.13
2023-03-11T02:30:53.171Z,1.63
2023-03-11T02:33:21.388Z,1.33
2023-03-11T02:35:50.110Z,1.87
2023-03-11T02:38:18.236Z,1.20
2023-03-11T02:40:51.864Z,1.70
2023-03-11T02:43:26.736Z,1.40
2023-03-11T02:45:55.586Z,1.40
2023-03-11T02:48:24.577Z,1.47
2023-03-11T02:50:53.841Z,1.43
2023-03-11T02:53:22.092Z,1.10
2023-03-11T02:55:53.307Z,1.03
2023-03-11T02:58:22.955Z,1.50
2023-03-11T03:00:51.187Z,1.50
2023-03-11T03:03:19.473Z,1.40
2023-03-11T03:05:47.666Z,1.43
2023-03-11T03:08:15.859Z,1.57
2023-03-11T03:10:44.018Z,1.03
2023-03-11T03:13:12.337Z,1.10
2023-03-11T03:15:42.248Z,1.00
2023-03-11T03:18:10.702Z,1.20
2023-03-11T03:20:38.930Z,1.37
2023-03-11T03:23:07.164Z,1.60
2023-03-11T03:25:35.352Z,1.33
2023-03-11T03:28:03.722Z,1.40
2023-03-11T03:30:31.968Z,1.17
2023-03-11T03:33:01.772Z,1.50
2023-03-11T03:35:30.038Z,1.03
2023-03-11T03:37:58.176Z,1.33
2023-03-11T03:40:27.038Z,1.20
2023-03-11T03:42:55.390Z,1.10
2023-03-11T03:45:23.574Z,1.10
2023-03-11T03:47:51.799Z,1.40
2023-03-11T03:50:21.360Z,1.60
2023-03-11T03:52:49.534Z,1.23
2023-03-11T03:55:17.872Z,1.23
2023-03-11T03:57:46.090Z,1.10
2023-03-11T04:00:15.802Z,1.33
2023-03-11T04:02:43.974Z,1.13
2023-03-11T04:05:12.217Z,0.90
2023-03-11T04:07:41.930Z,1.33
2023-03-11T04:10:11.051Z,1.23
2023-03-11T04:12:39.695Z,1.07
2023-03-11T04:15:09.457Z,1.10
2023-03-11T04:17:37.990Z,0.90
2023-03-11T04:20:09.120Z,0.90
2023-03-11T04:22:37.634Z,1.27
2023-03-11T04:25:08.625Z,1.93
2023-03-11T04:27:38.358Z,1.20
2023-03-11T04:30:07.976Z,1.47
2023-03-11T04:32:36.629Z,1.73
2023-03-11T04:35:05.142Z,0.97
2023-03-11T04:37:33.735Z,1.33
2023-03-11T04:40:01.933Z,1.07
2023-03-11T04:42:31.454Z,1.20
2023-03-11T04:44:59.669Z,1.60
2023-03-11T04:47:28.033Z,1.20
2023-03-11T04:49:56.269Z,1.20
2023-03-11T04:52:24.545Z,1.60
2023-03-11T04:54:52.926Z,1.37
2023-03-11T04:57:21.573Z,1.50
2023-03-11T04:59:51.078Z,1.43
2023-03-11T05:02:19.199Z,1.50
2023-03-11T05:04:47.688Z,1.30
2023-03-11T05:07:15.937Z,1.87
2023-03-11T05:09:44.589Z,1.80
2023-03-11T05:12:13.536Z,0.83
2023-03-11T05:14:41.933Z,1.30
2023-03-11T05:17:12.136Z,1.37
2023-03-11T05:19:40.597Z,1.17
2023-03-11T05:22:09.039Z,1.30
2023-03-11T05:24:37.570Z,1.27
2023-03-11T05:27:06.500Z,1.20
2023-03-11T05:29:35.010Z,1.50
2023-03-11T05:32:03.171Z,1.20
2023-03-11T05:34:33.090Z,1.63
2023-03-11T05:37:03.193Z,1.60
2023-03-11T05:39:31.675Z,1.87
2023-03-11T05:41:59.801Z,1.87
2023-03-11T05:44:27.956Z,1.53
2023-03-11T05:46:56.287Z,1.37
2023-03-11T05:49:24.642Z,1.50
2023-03-11T05:51:56.086Z,1.30
2023-03-11T05:54:25.952Z,2.60
2023-03-11T05:56:54.167Z,1.77
2023-03-11T05:59:23.244Z,1.30
2023-03-11T06:01:51.421Z,1.30
2023-03-11T06:04:19.744Z,1.20
2023-03-11T06:06:48.017Z,1.33
2023-03-11T06:09:17.744Z,1.33
2023-03-11T06:11:45.922Z,1.17
2023-03-11T06:14:15.907Z,1.50
2023-03-11T06:16:44.100Z,1.00
2023-03-11T06:19:12.603Z,1.73
2023-03-11T06:21:41.008Z,1.70
2023-03-11T06:24:09.496Z,1.40
2023-03-11T06:26:38.971Z,1.20
2023-03-11T06:29:12.585Z,1.40
2023-03-11T06:31:41.717Z,1.20
2023-03-11T06:34:11.653Z,1.23
2023-03-11T06:36:40.055Z,1.60
2023-03-11T06:39:09.352Z,1.67
2023-03-11T06:41:38.908Z,1.73
2023-03-11T06:44:07.189Z,1.83
2023-03-11T06:46:35.974Z,1.90
2023-03-11T06:49:04.504Z,2.27
2023-03-11T06:51:32.741Z,1.70
2023-03-11T06:54:01.296Z,1.60
2023-03-11T06:56:29.506Z,1.60
2023-03-11T06:58:59.532Z,1.60
2023-03-11T07:01:28.704Z,2.00
2023-03-11T07:03:57.054Z,2.20
2023-03-11T07:06:27.237Z,2.33
2023-03-11T07:08:55.848Z,1.70
2023-03-11T07:11:25.647Z,1.57
2023-03-11T07:13:54.499Z,1.30
2023-03-11T07:16:25.784Z,1.53
2023-03-11T07:18:56.597Z,1.70
2023-03-11T07:21:25.321Z,1.50
2023-03-11T07:23:55.051Z,1.43
2023-03-11T07:26:24.304Z,1.47
2023-03-11T07:28:53.111Z,1.63
2023-03-11T07:31:25.073Z,1.87
2023-03-11T07:33:53.847Z,2.17
2023-03-11T07:36:24.187Z,1.77
2023-03-11T07:38:58.314Z,1.83
2023-03-11T07:41:27.249Z,1.97
2023-03-11T07:43:56.758Z,1.77
2023-03-11T07:46:27.966Z,2.03
2023-03-11T07:48:56.958Z,1.97
2023-03-11T07:51:27.286Z,1.70
2023-03-11T07:53:56.851Z,2.03
2023-03-11T07:56:27.122Z,2.20
2023-03-11T07:58:56.123Z,1.80
2023-03-11T08:01:27.662Z,2.00
2023-03-11T08:03:58.557Z,1.80
2023-03-11T08:06:29.135Z,2.00
2023-03-11T08:08:57.345Z,2.03
2023-03-11T08:11:26.117Z,1.97
2023-03-11T08:13:55.128Z,1.60
2023-03-11T08:16:23.672Z,1.80
2023-03-11T08:18:54.277Z,2.27
2023-03-11T08:21:27.171Z,1.80
2023-03-11T08:23:58.653Z,1.80
2023-03-11T08:26:27.008Z,1.80
2023-03-11T08:28:56.320Z,1.97
2023-03-11T08:31:26.400Z,2.27
2023-03-11T08:33:58.830Z,1.93
2023-03-11T08:36:27.557Z,2.03
2023-03-11T08:38:56.010Z,2.87
2023-03-11T08:41:24.838Z,1.43
2023-03-11T08:43:53.208Z,1.43
2023-03-11T08:46:25.043Z,1.40
2023-03-11T08:48:54.514Z,1.27
2023-03-11T08:51:25.321Z,1.97
2023-03-11T08:53:54.487Z,1.93
2023-03-11T08:56:22.639Z,1.57
2023-03-11T08:58:50.997Z,1.50
2023-03-11T09:01:20.420Z,2.50
2023-03-11T09:03:48.662Z,1.67
2023-03-11T09:06:17.969Z,1.60
2023-03-11T09:08:49.326Z,1.30
2023-03-11T09:11:18.176Z,1.33
2023-03-11T09:13:46.771Z,1.20
2023-03-11T09:16:16.716Z,1.50
2023-03-11T09:18:45.174Z,1.63
2023-03-11T09:21:13.763Z,1.83
2023-03-11T09:23:44.341Z,0.90
2023-03-11T09:26:14.734Z,1.30
2023-03-11T09:28:46.953Z,1.20
2023-03-11T09:31:15.688Z,1.17
2023-03-11T09:33:44.435Z,0.93
2023-03-11T09:36:15.161Z,1.00
2023-03-11T09:38:43.722Z,2.30
2023-03-11T09:41:27.105Z,1.10
2023-03-11T09:44:11.146Z,1.00
2023-03-11T09:47:13.744Z,1.23
2023-03-11T09:49:53.822Z,0.90
2023-03-11T09:52:31.115Z,1.00
2023-03-11T09:55:02.172Z,0.93
2023-03-11T09:57:35.314Z,1.00
2023-03-11T10:00:05.701Z,1.03
2023-03-11T10:02:37.367Z,0.93
2023-03-11T10:05:13.950Z,1.00
2023-03-11T10:07:44.886Z,0.80
2023-03-11T10:10:15.131Z,0.90
2023-03-11T10:12:57.749Z,1.23
2023-03-11T10:15:48.136Z,1.87
2023-03-11T10:18:41.746Z,1.33
2023-03-11T10:21:19.625Z,1.50
2023-03-11T10:24:03.172Z,1.40
2023-03-11T10:26:37.048Z,1.20
2023-03-11T10:29:16.248Z,0.90
2023-03-11T10:31:48.763Z,1.17
2023-03-11T10:34:22.777Z,1.10
2023-03-11T10:36:59.799Z,1.47
2023-03-11T10:39:28.690Z,1.57
2023-03-11T10:42:00.315Z,0.73
2023-03-11T10:44:33.853Z,1.10
2023-03-11T10:47:02.702Z,1.70
2023-03-11T10:49:31.551Z,0.60
2023-03-11T10:52:00.087Z,0.77
2023-03-11T10:54:33.830Z,1.10
2023-03-11T10:57:03.666Z,0.80
2023-03-11T10:59:37.474Z,1.43
2023-03-11T11:02:23.468Z,1.10
2023-03-11T11:05:20.022Z,0.80
2023-03-11T11:07:49.506Z,0.83
2023-03-11T11:10:20.585Z,1.17
2023-03-11T11:12:57.613Z,0.80
2023-03-11T11:15:30.783Z,1.17
2023-03-11T11:18:01.586Z,0.77
2023-03-11T11:20:31.252Z,0.80
2023-03-11T11:23:01.165Z,0.90
2023-03-11T11:25:33.651Z,1.10
2023-03-11T11:28:05.173Z,0.80
2023-03-11T11:30:34.752Z,1.10
2023-03-11T11:33:24.350Z,0.80
2023-03-11T11:35:55.344Z,0.60
2023-03-11T11:38:25.315Z,0.90
2023-03-11T11:40:56.092Z,0.93
2023-03-11T11:43:36.986Z,0.90
2023-03-11T11:46:13.388Z,0.77
2023-03-11T11:48:48.581Z,1.00
2023-03-11T11:51:21.563Z,1.20
2023-03-11T11:53:55.369Z,1.00
2023-03-11T11:56:26.218Z,1.03
2023-03-11T11:58:55.303Z,3.80
2023-03-11T12:01:40.691Z,1.10
2023-03-11T12:04:33.892Z,1.27
2023-03-11T12:07:33.195Z,1.20
2023-03-11T12:10:22.155Z,0.63
2023-03-11T12:13:08.393Z,0.80
2023-03-11T12:15:42.089Z,1.00
2023-03-11T12:18:18.107Z,0.63
2023-03-11T12:20:50.253Z,1.10
2023-03-11T12:23:33.712Z,0.90
2023-03-11T12:26:19.597Z,0.80
2023-03-11T12:28:53.320Z,0.90
2023-03-11T12:31:24.345Z,0.77
2023-03-11T12:33:58.951Z,1.20
2023-03-11T12:36:31.952Z,0.80
2023-03-11T12:39:02.015Z,1.03
2023-03-11T12:41:38.660Z,1.00
2023-03-11T12:44:26.423Z,0.93
2023-03-11T12:47:27.245Z,0.87
2023-03-11T12:50:17.630Z,0.90
2023-03-11T12:52:56.047Z,1.17
2023-03-11T12:55:33.893Z,0.80
2023-03-11T12:58:34.811Z,0.90
2023-03-11T13:01:36.505Z,1.00
2023-03-11T13:04:22.079Z,0.60
2023-03-11T13:07:39.523Z,0.97
2023-03-11T13:10:21.445Z,0.90
2023-03-11T13:12:51.125Z,1.00
2023-03-11T13:15:46.717Z,0.90
2023-03-11T13:18:18.699Z,1.00
2023-03-11T13:20:55.933Z,0.70
2023-03-11T13:23:34.871Z,0.80
2023-03-11T13:26:30.232Z,0.90
2023-03-11T13:29:21.112Z,1.33
2023-03-11T13:32:14.191Z,0.83
2023-03-11T13:34:50.730Z,1.03
2023-03-11T13:37:28.860Z,1.43
2023-03-11T13:40:21.049Z,1.00
2023-03-11T13:42:51.550Z,1.07
2023-03-11T13:45:29.873Z,0.90
2023-03-11T13:48:01.545Z,1.50
2023-03-11T13:50:36.434Z,1.10
2023-03-11T13:53:09.760Z,1.30
2023-03-11T13:55:42.319Z,1.17
2023-03-11T13:58:18.344Z,0.90
2023-03-11T14:00:50.959Z,0.77
2023-03-11T14:03:22.834Z,1.20
2023-03-11T14:05:52.393Z,1.50
2023-03-11T14:08:24.192Z,1.60
2023-03-11T14:10:58.657Z,1.20
2023-03-11T14:13:30.246Z,1.20
2023-03-11T14:16:05.211Z,1.00
2023-03-11T14:18:39.055Z,1.00
2023-03-11T14:21:13.708Z,1.43
2023-03-11T14:23:43.556Z,1.00
2023-03-11T14:26:18.603Z,1.20
2023-03-11T14:28:49.648Z,1.20
2023-03-11T14:31:29.924Z,1.40
2023-03-11T14:34:04.240Z,1.33
2023-03-11T14:36:41.503Z,1.27
2023-03-11T14:39:27.407Z,1.03
2023-03-11T14:42:02.402Z,1.17
2023-03-11T14:44:32.716Z,1.50
2023-03-11T14:47:10.020Z,1.30
2023-03-11T14:49:39.313Z,1.03
2023-03-11T14:52:15.048Z,1.20
2023-03-11T14:54:44.824Z,1.60
2023-03-11T14:57:20.478Z,1.00
2023-03-11T14:59:51.722Z,1.57
2023-03-11T15:02:36.163Z,0.97
2023-03-11T15:05:10.889Z,1.17
2023-03-11T15:07:39.797Z,1.47
2023-03-11T15:10:10.569Z,1.37
2023-03-11T15:12:42.926Z,1.20
2023-03-11T15:15:24.195Z,1.17
2023-03-11T15:17:56.511Z,1.30
2023-03-11T15:20:27.355Z,1.10
2023-03-11T15:23:00.684Z,1.30
2023-03-11T15:25:31.242Z,1.30
2023-03-11T15:28:01.561Z,1.33
2023-03-11T15:30:32.017Z,0.90
2023-03-11T15:33:00.572Z,1.70
2023-03-11T15:35:29.709Z,1.40
2023-03-11T15:38:23.717Z,1.43
2023-03-11T15:40:54.605Z,1.30
2023-03-11T15:43:29.426Z,2.40
2023-03-11T15:45:58.933Z,2.00
2023-03-11T15:48:29.918Z,1.77
2023-03-11T15:51:01.572Z,1.73
2023-03-11T15:53:31.576Z,1.40
2023-03-11T15:56:11.506Z,2.10
2023-03-11T15:58:41.087Z,1.83
2023-03-11T16:01:10.445Z,1.60
2023-03-11T16:03:38.953Z,1.40
2023-03-11T16:06:07.610Z,1.40
2023-03-11T16:08:35.866Z,1.43
2023-03-11T16:11:04.104Z,1.50
2023-03-11T16:13:32.307Z,1.30
2023-03-11T16:16:04.243Z,1.60
2023-03-11T16:18:33.693Z,1.30
2023-03-11T16:21:04.702Z,1.73
2023-03-11T16:23:50.663Z,1.50
2023-03-11T16:26:20.334Z,1.10
2023-03-11T16:28:48.573Z,2.40
2023-03-11T16:31:18.358Z,1.30
2023-03-11T16:33:47.051Z,1.20
2023-03-11T16:36:15.390Z,1.37
2023-03-11T16:38:46.586Z,1.47
2023-03-11T16:41:15.216Z,1.30
2023-03-11T16:43:43.790Z,1.47
2023-03-11T16:46:12.162Z,1.60
2023-03-11T16:48:41.846Z,1.70
2023-03-11T16:51:10.433Z,1.30
2023-03-11T16:53:38.645Z,1.40
2023-03-11T16:56:07.749Z,1.43
2023-03-11T16:58:35.925Z,1.50
2023-03-11T17:01:04.264Z,1.40
2023-03-11T17:03:41.917Z,1.20
2023-03-11T17:06:11.916Z,1.40
2023-03-11T17:08:40.244Z,1.57
2023-03-11T17:11:15.728Z,1.40
2023-03-11T17:13:44.704Z,1.90
2023-03-11T17:16:13.767Z,1.50
2023-03-11T17:18:42.204Z,1.53
2023-03-11T17:21:13.058Z,1.30
2023-03-11T17:23:41.994Z,1.10
2023-03-11T17:26:11.742Z,1.20
2023-03-11T17:28:40.651Z,1.33
2023-03-11T17:31:12.715Z,1.47
2023-03-11T17:33:41.454Z,1.10
2023-03-11T17:36:15.909Z,1.40
2023-03-11T17:38:44.896Z,1.13
2023-03-11T17:41:19.132Z,1.10
2023-03-11T17:43:49.715Z,1.30
2023-03-11T17:46:20.357Z,1.17
2023-03-11T17:48:49.981Z,1.50
2023-03-11T17:51:22.217Z,1.30
2023-03-11T17:53:51.007Z,1.50
2023-03-11T17:56:21.313Z,1.97
2023-03-11T17:58:50.511Z,1.20
2023-03-11T18:01:21.390Z,1.40
2023-03-11T18:03:49.926Z,1.63
2023-03-11T18:06:21.659Z,1.40
2023-03-11T18:08:49.920Z,3.10
2023-03-11T18:11:20.444Z,1.80
2023-03-11T18:13:48.761Z,1.70
2023-03-11T18:16:19.956Z,1.50
2023-03-11T18:18:49.319Z,1.50
2023-03-11T18:21:20.868Z,1.40
2023-03-11T18:23:49.165Z,1.30
2023-03-11T18:26:19.037Z,1.80
2023-03-11T18:28:47.555Z,2.10
2023-03-11T18:31:17.309Z,1.47
2023-03-11T18:33:49.708Z,2.00
2023-03-11T18:36:21.026Z,1.83
2023-03-11T18:38:50.496Z,2.10
2023-03-11T18:41:18.937Z,1.87
2023-03-11T18:43:47.174Z,2.03
2023-03-11T18:46:17.180Z,1.93
2023-03-11T18:48:45.364Z,2.23
2023-03-11T18:51:14.162Z,1.90
2023-03-11T18:53:43.704Z,2.13
2023-03-11T18:56:13.627Z,2.30
2023-03-11T18:58:41.890Z,2.40
2023-03-11T19:01:12.278Z,2.67
2023-03-11T19:03:41.129Z,3.13
2023-03-11T19:06:09.920Z,2.30
2023-03-11T19:08:38.184Z,2.80
2023-03-11T19:11:08.844Z,2.20
2023-03-11T19:13:46.528Z,2.27
2023-03-11T19:16:16.079Z,1.97
2023-03-11T19:18:44.278Z,1.40
2023-03-11T19:21:14.722Z,2.07
2023-03-11T19:23:42.876Z,1.77
2023-03-11T19:26:12.753Z,1.77
2023-03-11T19:28:41.042Z,2.67
2023-03-11T19:31:09.412Z,2.60
2023-03-11T19:33:37.703Z,2.57
2023-03-11T19:36:08.347Z,1.93
2023-03-11T19:38:36.874Z,2.13
2023-03-11T19:41:07.386Z,2.27
2023-03-11T19:43:37.820Z,1.87
2023-03-11T19:46:07.854Z,1.60
2023-03-11T19:48:36.225Z,1.63
2023-03-11T19:51:07.623Z,1.63
2023-03-11T19:53:37.106Z,1.80
2023-03-11T19:56:06.692Z,1.50
2023-03-11T19:58:37.122Z,1.27
2023-03-11T20:01:05.760Z,1.53
2023-03-11T20:03:34.200Z,1.47
2023-03-11T20:06:06.411Z,1.30
2023-03-11T20:08:37.213Z,1.37
2023-03-11T20:11:06.565Z,1.83
2023-03-11T20:13:38.046Z,1.30
2023-03-11T20:16:08.242Z,1.40
2023-03-11T20:18:36.718Z,2.70
2023-03-11T20:21:09.697Z,2.90
2023-03-11T20:23:38.495Z,1.77
2023-03-11T20:26:08.446Z,1.60
2023-03-11T20:28:38.482Z,2.27
2023-03-11T20:31:12.741Z,1.80
2023-03-11T20:33:41.313Z,2.07
2023-03-11T20:36:14.432Z,2.50
2023-03-11T20:38:45.090Z,2.80
2023-03-11T20:41:13.449Z,3.93
2023-03-11T20:43:43.768Z,3.20
2023-03-11T20:46:13.542Z,2.83
2023-03-11T20:48:43.975Z,2.67
2023-03-11T20:51:14.979Z,3.40
2023-03-11T20:53:43.816Z,2.77
2023-03-11T20:56:14.570Z,2.83
2023-03-11T20:58:45.670Z,2.87
2023-03-11T21:01:15.686Z,3.63
2023-03-11T21:03:44.878Z,4.17
2023-03-11T21:06:18.714Z,3.90
2023-03-11T21:08:47.413Z,3.13
2023-03-11T21:11:18.547Z,3.47
2023-03-11T21:13:48.375Z,3.63
2023-03-11T21:16:16.929Z,3.50
2023-03-11T21:18:49.169Z,3.13
2023-03-11T21:21:19.015Z,3.00
2023-03-11T21:23:49.536Z,3.40
2023-03-11T21:26:19.266Z,3.90
2023-03-11T21:28:48.771Z,3.60
2023-03-11T21:31:19.184Z,3.87
2023-03-11T21:33:48.204Z,3.17
2023-03-11T21:36:17.535Z,3.43
2023-03-11T21:38:46.047Z,4.00
2023-03-11T21:41:16.559Z,4.43
2023-03-11T21:43:45.412Z,3.93
2023-03-11T21:46:17.810Z,4.40
2023-03-11T21:48:47.017Z,5.20
2023-03-11T21:51:16.552Z,6.10
2023-03-11T21:53:45.180Z,6.60
2023-03-11T21:56:14.168Z,6.40
2023-03-11T21:58:46.007Z,6.50
2023-03-11T22:01:17.847Z,6.70
2023-03-11T22:03:47.191Z,5.83
2023-03-11T22:06:15.916Z,6.60
2023-03-11T22:08:44.291Z,6.40
2023-03-11T22:11:17.677Z,6.07
2023-03-11T22:13:47.223Z,5.97
2023-03-11T22:16:16.968Z,6.00
2023-03-11T22:18:48.794Z,6.17
2023-03-11T22:21:18.569Z,6.30
2023-03-11T22:23:47.366Z,6.20
2023-03-11T22:26:19.523Z,7.20
2023-03-11T22:28:50.136Z,6.17
2023-03-11T22:31:22.509Z,6.10
2023-03-11T22:33:50.916Z,7.10
2023-03-11T22:36:19.109Z,7.40
2023-03-11T22:38:47.437Z,5.93
2023-03-11T22:41:19.153Z,6.13
2023-03-11T22:43:48.384Z,6.43
2023-03-11T22:46:16.715Z,6.17
2023-03-11T22:48:46.314Z,5.53
2023-03-11T22:51:14.868Z,6.87
2023-03-11T22:53:43.114Z,5.47
2023-03-11T22:56:14.325Z,5.60
2023-03-11T22:58:43.344Z,5.70
2023-03-11T23:01:12.427Z,5.13
2023-03-11T23:03:40.993Z,5.87
2023-03-11T23:06:13.456Z,6.57
2023-03-11T23:08:41.945Z,5.40
2023-03-11T23:11:13.044Z,5.60
2023-03-11T23:13:42.408Z,5.27
2023-03-11T23:16:14.074Z,4.83
2023-03-11T23:18:44.218Z,4.70
2023-03-11T23:21:19.785Z,5.47
2023-03-11T23:23:50.928Z,4.70
2023-03-11T23:26:23.110Z,5.17
2023-03-11T23:28:52.230Z,5.17
2023-03-11T23:31:22.892Z,5.67
2023-03-11T23:33:51.913Z,4.00
2023-03-11T23:36:25.743Z,4.47
2023-03-11T23:38:53.955Z,4.60
2023-03-11T23:41:23.824Z,4.40
2023-03-11T23:43:52.112Z,4.30
2023-03-11T23:46:22.692Z,4.90
2023-03-11T23:48:53.909Z,4.50
2023-03-11T23:51:23.649Z,4.60
2023-03-11T23:53:51.877Z,4.80
2023-03-11T23:56:20.525Z,3.50
2023-03-11T23:58:49.028Z,4.40
